createdAt,value
2023-03-12T00:00:35.824Z,10.60
2023-03-12T00:03:04.275Z,12.70
2023-03-12T00:05:32.688Z,10.90
2023-03-12T00:08:01.134Z,10.03
2023-03-12T00:10:31.130Z,15.83
2023-03-12T00:12:59.744Z,10.20
2023-03-12T00:15:28.575Z,10.77
2023-03-12T00:17:57.065Z,10.53
2023-03-12T00:20:26.363Z,9.20
2023-03-12T00:22:54.841Z,10.33
2023-03-12T00:25:23.263Z,9.57
2023-03-12T00:27:53.333Z,9.07
2023-03-12T00:30:21.745Z,6.63
2023-03-12T00:32:50.302Z,11.90
2023-03-12T00:35:18.855Z,11.70
2023-03-12T00:37:47.523Z,10.07
2023-03-12T00:40:16.330Z,12.80
2023-03-12T00:42:44.777Z,9.50
2023-03-12T00:45:14.558Z,10.53
2023-03-12T00:47:42.953Z,8.93
2023-03-12T00:50:11.928Z,7.63
2023-03-12T00:52:40.325Z,9.47
2023-03-12T00:55:09.278Z,9.27
2023-03-12T00:57:37.749Z,6.30
2023-03-12T01:00:10.181Z,9.73
2023-03-12T01:02:40.977Z,9.00
2023-03-12T01:05:11.997Z,9.77
2023-03-12T01:07:40.827Z,11.67
2023-03-12T01:10:10.972Z,10.07
2023-03-12T01:12:39.396Z,10.50
2023-03-12T01:15:08.497Z,10.63
2023-03-12T01:17:37.589Z,9.60
2023-03-12T01:20:08.506Z,10.00
2023-03-12T01:22:37.579Z,8.73
2023-03-12T01:25:06.380Z,10.77
2023-03-12T01:27:34.947Z,8.20
2023-03-12T01:30:03.453Z,10.40
2023-03-12T01:32:32.129Z,12.70
2023-03-12T01:35:00.659Z,15.87
2023-03-12T01:37:30.687Z,10.63
2023-03-12T01:39:59.202Z,13.03
2023-03-12T01:42:27.633Z,15.07
2023-03-12T01:44:57.448Z,10.70
2023-03-12T01:47:26.461Z,15.37
2023-03-12T01:49:56.953Z,10.73
2023-03-12T01:52:28.661Z,12.17
2023-03-12T01:55:03.490Z,11.10
2023-03-12T01:57:35.710Z,12.00
2023-03-12T02:00:11.599Z,10.17
2023-03-12T02:02:41.316Z,13.93
2023-03-12T02:05:17.753Z,12.50
2023-03-12T02:07:46.314Z,13.63
2023-03-12T02:10:17.434Z,13.43
2023-03-12T02:12:46.052Z,9.67
2023-03-12T02:15:14.519Z,12.67
2023-03-12T02:17:43.222Z,13.47
2023-03-12T02:20:16.594Z,12.77
2023-03-12T02:22:50.505Z,10.43
2023-03-12T02:25:32.095Z,11.20
2023-03-12T02:28:02.834Z,11.33
2023-03-12T02:30:32.623Z,15.10
2023-03-12T02:33:02.644Z,14.47
2023-03-12T02:35:31.216Z,13.20
2023-03-12T02:37:59.812Z,15.07
2023-03-12T02:40:33.291Z,14.43
2023-03-12T02:43:03.501Z,13.07
2023-03-12T02:45:32.197Z,14.63
2023-03-12T02:48:00.704Z,13.37
2023-03-12T02:50:29.244Z,17.63
2023-03-12T02:52:57.662Z,15.60
2023-03-12T02:55:26.004Z,15.83
2023-03-12T02:57:55.635Z,18.50
2023-03-12T03:00:24.279Z,12.13
2023-03-12T03:02:52.987Z,15.27
2023-03-12T03:05:21.696Z,15.17
2023-03-12T03:07:50.575Z,14.90
2023-03-12T03:10:19.182Z,18.27
2023-03-12T03:12:47.864Z,17.67
2023-03-12T03:15:17.830Z,16.63
2023-03-12T03:17:46.627Z,19.67
2023-03-12T03:20:15.426Z,17.50
2023-03-12T03:22:43.867Z,15.50
2023-03-12T03:25:12.466Z,18.03
2023-03-12T03:27:40.973Z,19.13
2023-03-12T03:30:10.688Z,23.57
2023-03-12T03:32:41.290Z,19.67
2023-03-12T03:35:10.627Z,24.23
2023-03-12T03:37:39.003Z,27.80
2023-03-12T03:40:11.866Z,23.93
2023-03-12T03:42:40.835Z,23.13
2023-03-12T03:45:10.875Z,26.87
2023-03-12T03:47:40.752Z,29.33
2023-03-12T03:50:09.686Z,26.13
2023-03-12T03:52:38.136Z,31.17
2023-03-12T03:55:07.044Z,38.63
2023-03-12T03:57:35.777Z,30.00
2023-03-12T04:00:08.970Z,32.40
2023-03-12T04:02:37.842Z,32.57
2023-03-12T04:05:08.114Z,33.00
2023-03-12T04:07:37.131Z,35.67
2023-03-12T04:10:06.412Z,33.20
2023-03-12T04:12:34.704Z,34.50
2023-03-12T04:15:03.191Z,34.47
2023-03-12T04:17:31.669Z,39.43
2023-03-12T04:20:00.136Z,35.67
2023-03-12T04:22:29.680Z,34.13
2023-03-12T04:24:58.171Z,35.70
2023-03-12T04:27:26.896Z,34.63
2023-03-12T04:29:55.456Z,41.97
2023-03-12T04:32:24.025Z,35.23
2023-03-12T04:34:52.495Z,36.43
2023-03-12T04:37:21.208Z,38.43
2023-03-12T04:39:51.015Z,37.67
2023-03-12T04:42:19.476Z,41.23
2023-03-12T04:44:47.944Z,36.80
2023-03-12T04:47:16.239Z,38.73
2023-03-12T04:49:44.644Z,39.20
2023-03-12T04:52:13.698Z,40.50
2023-03-12T04:54:42.172Z,42.10
2023-03-12T04:57:11.978Z,46.43
2023-03-12T04:59:40.542Z,43.10
2023-03-12T05:02:09.053Z,46.53
2023-03-12T05:04:37.410Z,45.90
2023-03-12T05:07:06.121Z,43.77
2023-03-12T05:09:34.891Z,47.20
2023-03-12T05:12:03.482Z,41.13
2023-03-12T05:14:33.161Z,44.23
2023-03-12T05:17:01.595Z,39.57
2023-03-12T05:19:30.250Z,41.97
2023-03-12T05:21:58.937Z,44.70
2023-03-12T05:24:27.501Z,38.93
2023-03-12T05:26:55.748Z,39.57
2023-03-12T05:29:24.240Z,39.37
2023-03-12T05:31:54.111Z,44.97
2023-03-12T05:34:22.571Z,46.47
2023-03-12T05:36:50.960Z,43.97
2023-03-12T05:39:19.365Z,44.57
2023-03-12T05:41:47.778Z,46.40
2023-03-12T05:44:16.322Z,46.57
2023-03-12T05:46:44.861Z,48.80
2023-03-12T05:49:14.978Z,52.20
2023-03-12T05:51:43.564Z,53.27
2023-03-12T05:54:12.054Z,56.10
2023-03-12T05:56:40.527Z,57.70
2023-03-12T05:59:10.815Z,53.63
2023-03-12T06:01:39.767Z,64.33
2023-03-12T06:04:08.174Z,60.87
2023-03-12T06:06:39.013Z,64.33
2023-03-12T06:09:07.903Z,68.03
2023-03-12T06:11:36.674Z,66.20
2023-03-12T06:14:05.109Z,67.50
2023-03-12T06:16:33.610Z,70.00
2023-03-12T06:19:03.376Z,68.53
2023-03-12T06:21:33.715Z,65.97
2023-03-12T06:24:03.655Z,63.40
2023-03-12T06:26:32.125Z,68.20
2023-03-12T06:29:00.856Z,69.40
2023-03-12T06:31:29.409Z,68.87
2023-03-12T06:33:57.891Z,75.63
2023-03-12T06:36:26.349Z,71.17
2023-03-12T06:38:57.115Z,65.10
2023-03-12T06:41:27.081Z,64.03
2023-03-12T06:43:55.528Z,62.23
2023-03-12T06:46:25.740Z,73.20
2023-03-12T06:48:54.258Z,61.70
2023-03-12T06:51:22.551Z,62.13
2023-03-12T06:53:51.006Z,65.63
2023-03-12T06:56:19.541Z,71.77
2023-03-12T06:58:49.136Z,76.87
2023-03-12T07:01:17.513Z,70.33
2023-03-12T07:03:46.004Z,61.07
2023-03-12T07:06:16.009Z,56.73
2023-03-12T07:08:45.412Z,55.70
2023-03-12T07:11:14.588Z,64.60
2023-03-12T07:13:43.468Z,50.27
2023-03-12T07:16:13.272Z,57.07
2023-03-12T07:18:42.337Z,48.30
2023-03-12T07:21:10.776Z,60.43
2023-03-12T07:23:39.180Z,59.23
2023-03-12T07:26:08.029Z,69.53
2023-03-12T07:28:36.452Z,56.30
2023-03-12T07:31:05.557Z,50.83
2023-03-12T07:33:35.793Z,57.53
2023-03-12T07:36:04.534Z,48.27
2023-03-12T07:38:33.091Z,55.27
2023-03-12T07:41:01.652Z,54.13
2023-03-12T07:43:30.391Z,63.60
2023-03-12T07:45:58.880Z,62.50
2023-03-12T07:48:29.179Z,70.03
2023-03-12T07:50:59.112Z,71.40
2023-03-12T07:53:27.572Z,68.30
2023-03-12T07:55:56.570Z,54.03
2023-03-12T07:58:25.522Z,61.00
2023-03-12T08:00:56.493Z,60.27
2023-03-12T08:03:25.988Z,69.43
2023-03-12T08:06:01.649Z,74.00
2023-03-12T08:08:31.291Z,63.67
2023-03-12T08:11:00.199Z,60.67
2023-03-12T08:13:28.927Z,57.37
2023-03-12T08:15:57.602Z,70.23
2023-03-12T08:18:26.286Z,62.93
2023-03-12T08:20:55.762Z,75.07
2023-03-12T08:23:26.674Z,75.10
2023-03-12T08:25:55.510Z,64.57
2023-03-12T08:28:25.551Z,72.63
2023-03-12T08:30:55.819Z,70.10
2023-03-12T08:33:24.443Z,67.60
2023-03-12T08:35:53.106Z,67.30
2023-03-12T08:38:21.753Z,70.97
2023-03-12T08:40:58.244Z,66.47
2023-03-12T08:43:29.190Z,64.77
2023-03-12T08:45:58.294Z,57.50
2023-03-12T08:48:27.047Z,55.40
2023-03-12T08:50:57.663Z,65.57
2023-03-12T08:53:26.297Z,66.83
2023-03-12T08:55:56.814Z,60.07
2023-03-12T08:58:26.481Z,59.40
2023-03-12T09:00:55.708Z,58.27
2023-03-12T09:03:24.613Z,53.87
2023-03-12T09:06:03.050Z,60.40
2023-03-12T09:08:34.051Z,60.50
2023-03-12T09:11:03.931Z,54.43
2023-03-12T09:13:54.257Z,63.47
2023-03-12T09:16:20.964Z,78.37
2023-03-12T09:18:49.539Z,59.07
2023-03-12T09:21:18.320Z,74.07
2023-03-12T09:23:47.204Z,69.20
2023-03-12T09:26:17.187Z,65.47
2023-03-12T09:28:45.566Z,69.77
2023-03-12T09:31:15.008Z,69.70
2023-03-12T09:33:43.506Z,79.23
2023-03-12T09:36:11.953Z,86.47
2023-03-12T09:38:41.054Z,71.00
2023-03-12T09:41:20.787Z,62.67
2023-03-12T09:43:54.075Z,74.93
2023-03-12T09:46:27.833Z,78.60
2023-03-12T09:49:00.298Z,81.53
2023-03-12T09:51:33.770Z,71.93
2023-03-12T09:54:05.204Z,68.70
2023-03-12T09:56:35.455Z,59.40
2023-03-12T09:59:04.872Z,56.67
2023-03-12T10:01:41.778Z,52.00
2023-03-12T10:04:58.194Z,39.87
2023-03-12T10:07:33.740Z,60.43
2023-03-12T10:10:29.791Z,54.47
2023-03-12T10:13:17.990Z,44.17
2023-03-12T10:15:55.620Z,28.23
2023-03-12T10:18:35.284Z,46.60
2023-03-12T10:21:13.092Z,38.40
2023-03-12T10:23:51.954Z,32.60
2023-03-12T10:26:25.718Z,34.72
2023-03-12T10:29:00.722Z,36.37
2023-03-12T10:31:32.612Z,44.53
2023-03-12T10:34:02.272Z,32.25
2023-03-12T10:36:40.406Z,43.33
2023-03-12T10:39:15.941Z,35.70
2023-03-12T10:41:45.931Z,39.95
2023-03-12T10:44:19.815Z,41.63
2023-03-12T10:47:14.030Z,44.77
2023-03-12T10:49:42.982Z,37.53
2023-03-12T10:52:17.971Z,33.90
2023-03-12T10:54:47.859Z,45.53
2023-03-12T10:57:17.235Z,45.10
2023-03-12T10:59:49.913Z,46.13
2023-03-12T11:02:35.729Z,41.10
2023-03-12T11:05:10.487Z,45.37
2023-03-12T11:07:44.896Z,45.20
2023-03-12T11:10:23.432Z,40.90
2023-03-12T11:13:03.719Z,29.77
2023-03-12T11:15:41.375Z,22.60
2023-03-12T11:18:37.018Z,33.93
2023-03-12T11:21:17.654Z,32.13
2023-03-12T11:23:48.365Z,23.33
2023-03-12T11:26:19.974Z,23.50
2023-03-12T11:28:51.013Z,22.23
2023-03-12T11:31:24.987Z,28.60
2023-03-12T11:33:57.324Z,34.10
2023-03-12T11:36:40.360Z,43.85
2023-03-12T11:39:19.486Z,40.65
2023-03-12T11:42:02.034Z,41.30
2023-03-12T11:44:39.904Z,45.30
2023-03-12T11:47:21.475Z,45.37
2023-03-12T11:50:14.918Z,40.63
2023-03-12T11:52:57.229Z,37.03
2023-03-12T11:55:47.216Z,18.88
2023-03-12T11:58:36.293Z,40.25
2023-03-12T12:01:10.255Z,47.37
2023-03-12T12:04:04.172Z,49.30
2023-03-12T12:06:42.522Z,52.97
2023-03-12T12:09:18.525Z,50.03
2023-03-12T12:11:58.445Z,48.53
2023-03-12T12:14:44.577Z,50.77
2023-03-12T12:17:22.762Z,46.43
2023-03-12T12:20:10.609Z,52.37
2023-03-12T12:22:52.233Z,57.30
2023-03-12T12:25:29.961Z,59.33
2023-03-12T12:28:22.567Z,43.73
2023-03-12T12:31:04.326Z,51.00
2023-03-12T12:33:47.059Z,45.90
2023-03-12T12:36:17.860Z,46.27
2023-03-12T12:38:50.899Z,50.97
2023-03-12T12:41:22.631Z,40.00
2023-03-12T12:43:52.166Z,39.07
2023-03-12T12:46:23.701Z,39.97
2023-03-12T12:48:55.165Z,39.92
2023-03-12T12:51:28.325Z,37.97
2023-03-12T12:54:02.897Z,40.27
2023-03-12T12:56:35.376Z,40.13
2023-03-12T12:59:27.262Z,38.23
2023-03-12T13:01:57.200Z,35.03
2023-03-12T13:04:28.321Z,41.30
2023-03-12T13:07:04.462Z,33.20
2023-03-12T13:09:41.687Z,36.33
2023-03-12T13:12:16.413Z,33.93
2023-03-12T13:14:46.010Z,33.22
2023-03-12T13:17:32.181Z,38.15
2023-03-12T13:20:11.022Z,39.80
2023-03-12T13:22:55.658Z,34.33
2023-03-12T13:25:43.146Z,41.65
2023-03-12T13:28:35.638Z,33.27
2023-03-12T13:31:25.258Z,35.87
2023-03-12T13:33:55.190Z,29.27
2023-03-12T13:36:25.514Z,27.65
2023-03-12T13:38:59.303Z,32.73
2023-03-12T13:41:36.596Z,30.17
2023-03-12T13:44:40.462Z,28.30
2023-03-12T13:47:24.485Z,34.13
2023-03-12T13:49:57.036Z,32.28
2023-03-12T13:52:27.747Z,29.73
2023-03-12T13:55:07.997Z,33.93
2023-03-12T13:57:41.174Z,37.50
2023-03-12T14:00:18.127Z,40.20
2023-03-12T14:02:50.821Z,39.40
2023-03-12T14:05:21.361Z,47.00
2023-03-12T14:08:17.235Z,36.60
2023-03-12T14:11:00.657Z,47.27
2023-03-12T14:13:43.705Z,50.00
2023-03-12T14:16:19.777Z,61.80
2023-03-12T14:18:50.061Z,62.17
2023-03-12T14:21:19.574Z,58.27
2023-03-12T14:23:53.023Z,63.03
2023-03-12T14:26:26.094Z,54.97
2023-03-12T14:29:00.235Z,62.80
2023-03-12T14:31:31.603Z,63.03
2023-03-12T14:34:05.135Z,54.37
2023-03-12T14:36:41.381Z,62.20
2023-03-12T14:39:25.933Z,59.13
2023-03-12T14:42:01.246Z,60.20
2023-03-12T14:44:31.819Z,52.40
2023-03-12T14:47:03.376Z,47.23
2023-03-12T14:49:32.609Z,63.47
2023-03-12T14:52:01.051Z,53.03
2023-03-12T14:54:30.038Z,58.40
2023-03-12T14:56:59.658Z,46.77
2023-03-12T14:59:31.352Z,44.23
2023-03-12T15:02:03.327Z,47.00
2023-03-12T15:04:34.994Z,48.07
2023-03-12T15:07:06.575Z,52.50
2023-03-12T15:09:37.285Z,46.07
2023-03-12T15:12:09.537Z,43.87
2023-03-12T15:14:42.067Z,43.80
2023-03-12T15:17:17.143Z,46.40
2023-03-12T15:19:46.388Z,40.50
2023-03-12T15:22:18.057Z,37.17
2023-03-12T15:24:46.822Z,28.63
2023-03-12T15:27:33.350Z,34.00
2023-03-12T15:30:02.724Z,39.57
2023-03-12T15:32:31.953Z,26.90
2023-03-12T15:35:00.908Z,28.77
2023-03-12T15:37:32.876Z,23.97
2023-03-12T15:40:05.180Z,16.83
2023-03-12T15:42:40.729Z,18.83
2023-03-12T15:45:20.425Z,19.30
2023-03-12T15:47:49.778Z,10.67
2023-03-12T15:50:23.926Z,12.63
2023-03-12T15:53:03.360Z,17.90
2023-03-12T15:55:32.666Z,17.47
2023-03-12T15:58:03.029Z,11.57
2023-03-12T16:00:32.876Z,15.80
2023-03-12T16:03:04.010Z,12.70
2023-03-12T16:05:34.928Z,13.67
2023-03-12T16:08:11.149Z,16.47
2023-03-12T16:10:41.008Z,16.60
2023-03-12T16:13:15.954Z,10.97
2023-03-12T16:15:47.371Z,11.93
2023-03-12T16:18:17.511Z,13.97
2023-03-12T16:20:46.904Z,14.80
2023-03-12T16:23:15.369Z,17.33
2023-03-12T16:25:44.590Z,14.43
2023-03-12T16:28:17.391Z,17.50
2023-03-12T16:30:46.298Z,26.90
2023-03-12T16:33:16.132Z,20.90
2023-03-12T16:35:44.856Z,24.80
2023-03-12T16:38:13.821Z,24.03
2023-03-12T16:40:45.211Z,23.50
2023-03-12T16:43:19.096Z,28.80
2023-03-12T16:45:49.142Z,25.90
2023-03-12T16:48:19.540Z,21.70
2023-03-12T16:50:49.316Z,19.10
2023-03-12T16:53:18.019Z,26.10
2023-03-12T16:55:50.691Z,17.27
2023-03-12T16:58:22.405Z,24.70
2023-03-12T17:00:51.953Z,26.47
2023-03-12T17:03:23.322Z,20.20
2023-03-12T17:05:52.019Z,21.13
2023-03-12T17:08:20.783Z,29.13
2023-03-12T17:10:49.399Z,33.07
2023-03-12T17:13:22.020Z,37.53
2023-03-12T17:15:50.634Z,27.60
2023-03-12T17:18:19.969Z,33.50
2023-03-12T17:20:49.176Z,30.57
2023-03-12T17:23:17.751Z,30.63
2023-03-12T17:25:47.869Z,33.70
2023-03-12T17:28:16.616Z,23.80
2023-03-12T17:30:47.525Z,26.63
2023-03-12T17:33:18.241Z,30.23
2023-03-12T17:35:47.100Z,28.07
2023-03-12T17:38:15.531Z,18.60
2023-03-12T17:40:45.284Z,35.43
2023-03-12T17:43:13.710Z,28.20
2023-03-12T17:45:43.079Z,29.40
2023-03-12T17:48:13.055Z,24.23
2023-03-12T17:50:41.893Z,25.10
2023-03-12T17:53:10.493Z,23.90
2023-03-12T17:55:39.154Z,31.80
2023-03-12T17:58:07.864Z,34.37
2023-03-12T18:00:36.306Z,29.33
2023-03-12T18:03:05.174Z,26.43
2023-03-12T18:05:34.891Z,24.50
2023-03-12T18:08:03.914Z,32.10
2023-03-12T18:10:32.953Z,34.83
2023-03-12T18:13:01.622Z,27.83
2023-03-12T18:15:30.179Z,28.00
2023-03-12T18:17:59.717Z,21.10
2023-03-12T18:20:37.694Z,24.90
2023-03-12T18:23:08.573Z,27.27
2023-03-12T18:25:38.627Z,25.23
2023-03-12T18:28:07.994Z,32.87
2023-03-12T18:30:36.580Z,31.60
2023-03-12T18:33:05.234Z,31.07
2023-03-12T18:35:34.195Z,25.07
2023-03-12T18:38:03.422Z,29.13
2023-03-12T18:40:34.289Z,23.97
2023-03-12T18:43:03.078Z,25.60
2023-03-12T18:45:31.738Z,24.63
2023-03-12T18:48:00.230Z,25.70
2023-03-12T18:50:28.798Z,26.63
2023-03-12T18:52:57.086Z,27.27
2023-03-12T18:55:25.725Z,25.00
2023-03-12T18:57:55.398Z,22.30
2023-03-12T19:00:24.066Z,28.10
2023-03-12T19:02:52.437Z,28.77
2023-03-12T19:05:20.914Z,29.47
2023-03-12T19:07:49.992Z,29.90
2023-03-12T19:10:18.464Z,30.27
2023-03-12T19:12:53.321Z,33.97
2023-03-12T19:15:25.349Z,30.77
2023-03-12T19:17:54.273Z,23.00
2023-03-12T19:20:23.103Z,34.13
2023-03-12T19:22:51.818Z,23.70
2023-03-12T19:25:21.135Z,26.47
2023-03-12T19:27:49.697Z,32.43
2023-03-12T19:30:18.370Z,30.60
2023-03-12T19:32:48.011Z,25.63
2023-03-12T19:35:16.668Z,27.17
2023-03-12T19:37:45.148Z,28.10
2023-03-12T19:40:14.464Z,27.73
2023-03-12T19:42:43.174Z,45.50
2023-03-12T19:45:12.965Z,30.40
2023-03-12T19:47:41.889Z,26.27
2023-03-12T19:50:13.670Z,24.77
2023-03-12T19:52:42.249Z,36.50
2023-03-12T19:55:11.931Z,33.20
2023-03-12T19:57:41.483Z,26.27
2023-03-12T20:00:12.284Z,28.37
2023-03-12T20:02:41.249Z,24.93
2023-03-12T20:05:11.681Z,31.90
2023-03-12T20:07:40.364Z,26.57
2023-03-12T20:10:11.005Z,31.30
2023-03-12T20:12:39.932Z,34.70
2023-03-12T20:15:09.013Z,39.77
2023-03-12T20:17:37.588Z,36.93
2023-03-12T20:20:07.943Z,32.90
2023-03-12T20:22:38.051Z,29.37
2023-03-12T20:25:07.603Z,35.07
2023-03-12T20:27:36.550Z,38.23
2023-03-12T20:30:05.629Z,30.73
2023-03-12T20:32:34.234Z,37.33
2023-03-12T20:35:03.753Z,26.33
2023-03-12T20:37:32.446Z,30.70
2023-03-12T20:40:02.882Z,36.83
2023-03-12T20:42:31.379Z,33.47
2023-03-12T20:44:59.853Z,29.23
2023-03-12T20:47:28.528Z,39.00
2023-03-12T20:49:57.086Z,32.83
2023-03-12T20:52:25.782Z,29.50
2023-03-12T20:54:54.251Z,33.80
2023-03-12T20:57:24.017Z,38.80
2023-03-12T20:59:52.418Z,39.30
2023-03-12T21:02:20.954Z,40.73
2023-03-12T21:04:52.599Z,36.33
2023-03-12T21:07:21.337Z,40.23
2023-03-12T21:09:49.985Z,32.73
2023-03-12T21:12:18.503Z,39.97
2023-03-12T21:14:48.207Z,35.60
2023-03-12T21:17:17.083Z,24.80
2023-03-12T21:19:46.593Z,32.33
2023-03-12T21:22:15.707Z,25.87
2023-03-12T21:24:44.243Z,30.40
2023-03-12T21:27:13.048Z,24.67
2023-03-12T21:29:41.565Z,30.33
2023-03-12T21:32:11.235Z,19.73
2023-03-12T21:34:40.195Z,22.13
2023-03-12T21:37:08.778Z,21.83
2023-03-12T21:39:37.377Z,24.60
2023-03-12T21:42:05.892Z,24.87
2023-03-12T21:44:36.523Z,24.13
2023-03-12T21:47:05.933Z,25.57
2023-03-12T21:49:36.404Z,27.90
2023-03-12T21:52:05.990Z,21.33
2023-03-12T21:54:35.341Z,23.53
2023-03-12T21:57:04.431Z,24.43
2023-03-12T21:59:33.417Z,23.17
2023-03-12T22:02:01.950Z,19.80
2023-03-12T22:04:30.629Z,23.47
2023-03-12T22:07:00.244Z,20.67
2023-03-12T22:09:28.656Z,21.27
2023-03-12T22:11:57.121Z,17.40
2023-03-12T22:14:25.889Z,21.53
2023-03-12T22:16:54.716Z,25.23
2023-03-12T22:19:24.066Z,23.40
2023-03-12T22:21:52.517Z,24.30
2023-03-12T22:24:22.178Z,22.47
2023-03-12T22:26:50.551Z,17.27
2023-03-12T22:29:19.377Z,22.63
2023-03-12T22:31:47.922Z,16.93
2023-03-12T22:34:16.370Z,18.98
2023-03-12T22:36:44.896Z,17.92
2023-03-12T22:39:13.633Z,25.38
2023-03-12T22:41:43.292Z,24.27
2023-03-12T22:44:11.680Z,22.83
2023-03-12T22:46:40.280Z,20.37
2023-03-12T22:49:08.781Z,20.58
2023-03-12T22:51:37.212Z,26.47
2023-03-12T22:54:05.872Z,26.73
2023-03-12T22:56:34.289Z,24.52
2023-03-12T22:59:04.190Z,24.17
2023-03-12T23:01:32.833Z,24.03
2023-03-12T23:04:01.337Z,21.37
2023-03-12T23:06:30.555Z,20.30
2023-03-12T23:08:59.866Z,22.58
2023-03-12T23:11:29.696Z,20.77
2023-03-12T23:13:58.452Z,17.90
2023-03-12T23:16:28.286Z,20.83
2023-03-12T23:18:57.357Z,21.83
2023-03-12T23:21:26.627Z,18.38
2023-03-12T23:23:55.342Z,19.00
2023-03-12T23:26:26.583Z,14.23
2023-03-12T23:28:55.554Z,15.23
2023-03-12T23:31:24.242Z,16.70
2023-03-12T23:33:53.922Z,20.10
2023-03-12T23:36:23.563Z,16.38
2023-03-12T23:38:52.346Z,17.40
2023-03-12T23:41:22.454Z,22.13
2023-03-12T23:43:51.253Z,16.05
2023-03-12T23:46:20.265Z,11.02
2023-03-12T23:48:49.013Z,16.10
2023-03-12T23:51:20.733Z,17.52
2023-03-12T23:53:50.386Z,17.40
2023-03-12T23:56:20.908Z,16.33
2023-03-12T23:58:50.206Z,12.05
